sensor_id;sensor_type;location;lat;lon;timestamp;P1;durP1;ratioP1;P2;durP2;ratioP2
2618;SDS011;1319;52.346;13.096;2022-07-23T00:01:12;13.03;;;8.60;;
2618;SDS011;1319;52.346;13.096;2022-07-23T00:03:37;10.60;;;8.47;;
2618;SDS011;1319;52.346;13.096;2022-07-23T00:06:03;14.60;;;9.30;;
2618;SDS011;1319;52.346;13.096;2022-07-23T00:08:28;11.57;;;9.23;;
2618;SDS011;1319;52.346;13.096;2022-07-23T00:10:53;12.80;;;9.53;;
2618;SDS011;1319;52.346;13.096;2022-07-23T00:13:18;16.07;;;9.23;;
2618;SDS011;1319;52.346;13.096;2022-07-23T00:15:43;22.93;;;11.50;;
2618;SDS011;1319;52.346;13.096;2022-07-23T00:18:09;23.47;;;11.57;;
2618;SDS011;1319;52.346;13.096;2022-07-23T00:20:34;18.77;;;10.17;;
2618;SDS011;1319;52.346;13.096;2022-07-23T00:22:59;15.07;;;10.00;;
2618;SDS011;1319;52.346;13.096;2022-07-23T00:25:26;12.23;;;9.33;;
2618;SDS011;1319;52.346;13.096;2022-07-23T00:27:51;15.10;;;9.63;;
2618;SDS011;1319;52.346;13.096;2022-07-23T00:30:16;21.17;;;10.73;;
2618;SDS011;1319;52.346;13.096;2022-07-23T00:32:48;11.37;;;9.60;;
2618;SDS011;1319;52.346;13.096;2022-07-23T00:35:14;14.03;;;10.70;;
2618;SDS011;1319;52.346;13.096;2022-07-23T00:37:39;14.93;;;9.80;;
2618;SDS011;1319;52.346;13.096;2022-07-23T00:40:05;14.60;;;10.37;;
2618;SDS011;1319;52.346;13.096;2022-07-23T00:42:31;15.33;;;10.40;;
2618;SDS011;1319;52.346;13.096;2022-07-23T00:44:56;11.37;;;9.17;;
2618;SDS011;1319;52.346;13.096;2022-07-23T00:47:21;10.23;;;8.67;;
2618;SDS011;1319;52.346;13.096;2022-07-23T00:49:46;10.67;;;8.80;;
2618;SDS011;1319;52.346;13.096;2022-07-23T00:52:12;10.53;;;8.77;;
2618;SDS011;1319;52.346;13.096;2022-07-23T00:54:37;13.90;;;8.50;;
2618;SDS011;1319;52.346;13.096;2022-07-23T00:57:02;14.03;;;9.07;;
2618;SDS011;1319;52.346;13.096;2022-07-23T00:59:28;17.60;;;9.43;;
2618;SDS011;1319;52.346;13.096;2022-07-23T01:01:53;12.87;;;9.03;;
2618;SDS011;1319;52.346;13.096;2022-07-23T01:04:19;13.73;;;9.43;;
2618;SDS011;1319;52.346;13.096;2022-07-23T01:06:44;16.63;;;9.80;;
2618;SDS011;1319;52.346;13.096;2022-07-23T01:09:10;11.83;;;8.53;;
2618;SDS011;1319;52.346;13.096;2022-07-23T01:11:36;13.33;;;9.87;;
2618;SDS011;1319;52.346;13.096;2022-07-23T01:14:08;14.63;;;9.73;;
2618;SDS011;1319;52.346;13.096;2022-07-23T01:16:33;20.03;;;10.20;;
2618;SDS011;1319;52.346;13.096;2022-07-23T01:18:58;12.23;;;10.07;;
2618;SDS011;1319;52.346;13.096;2022-07-23T01:21:24;16.43;;;9.47;;
2618;SDS011;1319;52.346;13.096;2022-07-23T01:23:49;13.40;;;9.73;;
2618;SDS011;1319;52.346;13.096;2022-07-23T01:26:14;13.87;;;9.53;;
2618;SDS011;1319;52.346;13.096;2022-07-23T01:28:42;14.33;;;10.00;;
2618;SDS011;1319;52.346;13.096;2022-07-23T01:31:07;15.70;;;9.80;;
2618;SDS011;1319;52.346;13.096;2022-07-23T01:33:32;18.93;;;10.50;;
2618;SDS011;1319;52.346;13.096;2022-07-23T01:35:57;13.13;;;9.60;;
2618;SDS011;1319;52.346;13.096;2022-07-23T01:38:22;14.30;;;10.17;;
2618;SDS011;1319;52.346;13.096;2022-07-23T01:40:48;13.20;;;9.67;;
2618;SDS011;1319;52.346;13.096;2022-07-23T01:43:13;13.07;;;10.03;;
2618;SDS011;1319;52.346;13.096;2022-07-23T01:45:38;15.50;;;9.37;;
2618;SDS011;1319;52.346;13.096;2022-07-23T01:48:03;11.63;;;9.00;;
2618;SDS011;1319;52.346;13.096;2022-07-23T01:50:29;13.10;;;9.07;;
2618;SDS011;1319;52.346;13.096;2022-07-23T01:52:54;12.50;;;8.90;;
2618;SDS011;1319;52.346;13.096;2022-07-23T01:55:19;12.87;;;8.77;;
2618;SDS011;1319;52.346;13.096;2022-07-23T01:57:45;14.20;;;8.90;;
2618;SDS011;1319;52.346;13.096;2022-07-23T02:00:10;13.20;;;9.40;;
2618;SDS011;1319;52.346;13.096;2022-07-23T02:02:35;11.83;;;9.10;;
2618;SDS011;1319;52.346;13.096;2022-07-23T02:05:01;9.93;;;8.53;;
2618;SDS011;1319;52.346;13.096;2022-07-23T02:07:26;13.07;;;8.70;;
2618;SDS011;1319;52.346;13.096;2022-07-23T02:09:51;13.23;;;9.10;;
2618;SDS011;1319;52.346;13.096;2022-07-23T02:12:16;10.00;;;8.33;;
2618;SDS011;1319;52.346;13.096;2022-07-23T02:14:41;14.93;;;8.57;;
2618;SDS011;1319;52.346;13.096;2022-07-23T02:17:06;13.00;;;7.90;;
2618;SDS011;1319;52.346;13.096;2022-07-23T02:19:32;9.67;;;7.97;;
2618;SDS011;1319;52.346;13.096;2022-07-23T02:21:57;12.50;;;8.50;;
2618;SDS011;1319;52.346;13.096;2022-07-23T02:24:22;12.03;;;8.13;;
2618;SDS011;1319;52.346;13.096;2022-07-23T02:26:47;14.40;;;8.07;;
2618;SDS011;1319;52.346;13.096;2022-07-23T02:29:13;13.10;;;8.13;;
2618;SDS011;1319;52.346;13.096;2022-07-23T02:31:38;14.77;;;8.47;;
2618;SDS011;1319;52.346;13.096;2022-07-23T02:34:03;9.57;;;7.73;;
2618;SDS011;1319;52.346;13.096;2022-07-23T02:36:29;11.10;;;8.33;;
2618;SDS011;1319;52.346;13.096;2022-07-23T02:38:54;15.13;;;7.97;;
2618;SDS011;1319;52.346;13.096;2022-07-23T02:41:19;10.43;;;8.60;;
2618;SDS011;1319;52.346;13.096;2022-07-23T02:43:44;15.23;;;8.87;;
2618;SDS011;1319;52.346;13.096;2022-07-23T02:46:10;12.40;;;8.57;;
2618;SDS011;1319;52.346;13.096;2022-07-23T02:48:35;13.27;;;8.13;;
2618;SDS011;1319;52.346;13.096;2022-07-23T02:51:00;13.97;;;8.47;;
2618;SDS011;1319;52.346;13.096;2022-07-23T02:53:25;14.40;;;8.23;;
2618;SDS011;1319;52.346;13.096;2022-07-23T02:55:51;9.00;;;7.97;;
2618;SDS011;1319;52.346;13.096;2022-07-23T02:58:16;10.93;;;8.80;;
2618;SDS011;1319;52.346;13.096;2022-07-23T03:00:42;11.50;;;8.00;;
2618;SDS011;1319;52.346;13.096;2022-07-23T03:03:07;14.40;;;8.27;;
2618;SDS011;1319;52.346;13.096;2022-07-23T03:05:33;11.53;;;8.50;;
2618;SDS011;1319;52.346;13.096;2022-07-23T03:07:58;14.70;;;7.80;;
2618;SDS011;1319;52.346;13.096;2022-07-23T03:10:23;12.93;;;7.70;;
2618;SDS011;1319;52.346;13.096;2022-07-23T03:12:49;9.17;;;7.30;;
2618;SDS011;1319;52.346;13.096;2022-07-23T03:15:14;9.90;;;7.40;;
2618;SDS011;1319;52.346;13.096;2022-07-23T03:17:39;14.37;;;7.63;;
2618;SDS011;1319;52.346;13.096;2022-07-23T03:20:05;10.17;;;7.57;;
2618;SDS011;1319;52.346;13.096;2022-07-23T03:22:30;9.03;;;6.60;;
2618;SDS011;1319;52.346;13.096;2022-07-23T03:24:55;11.10;;;6.43;;
2618;SDS011;1319;52.346;13.096;2022-07-23T03:27:25;9.37;;;6.63;;
2618;SDS011;1319;52.346;13.096;2022-07-23T03:29:51;8.13;;;6.03;;
2618;SDS011;1319;52.346;13.096;2022-07-23T03:32:16;8.40;;;5.50;;
2618;SDS011;1319;52.346;13.096;2022-07-23T03:34:41;8.97;;;5.50;;
2618;SDS011;1319;52.346;13.096;2022-07-23T03:37:07;8.60;;;5.33;;
2618;SDS011;1319;52.346;13.096;2022-07-23T03:39:32;11.60;;;5.50;;
2618;SDS011;1319;52.346;13.096;2022-07-23T03:41:57;9.47;;;5.53;;
2618;SDS011;1319;52.346;13.096;2022-07-23T03:44:22;8.87;;;5.77;;
2618;SDS011;1319;52.346;13.096;2022-07-23T03:46:48;11.07;;;5.67;;
2618;SDS011;1319;52.346;13.096;2022-07-23T03:49:13;7.47;;;5.47;;
2618;SDS011;1319;52.346;13.096;2022-07-23T03:51:38;9.50;;;4.70;;
2618;SDS011;1319;52.346;13.096;2022-07-23T03:54:03;11.67;;;4.83;;
2618;SDS011;1319;52.346;13.096;2022-07-23T03:56:29;4.73;;;4.20;;
2618;SDS011;1319;52.346;13.096;2022-07-23T03:58:54;8.43;;;4.27;;
2618;SDS011;1319;52.346;13.096;2022-07-23T04:01:19;6.47;;;4.57;;
2618;SDS011;1319;52.346;13.096;2022-07-23T04:03:44;5.80;;;4.83;;
2618;SDS011;1319;52.346;13.096;2022-07-23T04:06:11;9.73;;;4.80;;
2618;SDS011;1319;52.346;13.096;2022-07-23T04:08:36;6.27;;;4.40;;
2618;SDS011;1319;52.346;13.096;2022-07-23T04:11:02;10.60;;;5.43;;
2618;SDS011;1319;52.346;13.096;2022-07-23T04:13:27;14.00;;;4.90;;
2618;SDS011;1319;52.346;13.096;2022-07-23T04:15:52;8.83;;;4.40;;
2618;SDS011;1319;52.346;13.096;2022-07-23T04:18:17;10.47;;;4.30;;
2618;SDS011;1319;52.346;13.096;2022-07-23T04:20:43;11.07;;;4.43;;
2618;SDS011;1319;52.346;13.096;2022-07-23T04:23:08;11.03;;;4.70;;
2618;SDS011;1319;52.346;13.096;2022-07-23T04:25:34;10.60;;;5.17;;
2618;SDS011;1319;52.346;13.096;2022-07-23T04:27:59;11.23;;;5.00;;
2618;SDS011;1319;52.346;13.096;2022-07-23T04:30:25;10.23;;;4.83;;
2618;SDS011;1319;52.346;13.096;2022-07-23T04:32:50;10.83;;;5.20;;
2618;SDS011;1319;52.346;13.096;2022-07-23T04:35:15;12.00;;;4.93;;
2618;SDS011;1319;52.346;13.096;2022-07-23T04:37:40;6.83;;;4.80;;
2618;SDS011;1319;52.346;13.096;2022-07-23T04:40:06;8.20;;;5.30;;
2618;SDS011;1319;52.346;13.096;2022-07-23T04:42:31;10.27;;;5.53;;
2618;SDS011;1319;52.346;13.096;2022-07-23T04:44:56;15.07;;;5.40;;
2618;SDS011;1319;52.346;13.096;2022-07-23T04:47:21;11.60;;;5.50;;
2618;SDS011;1319;52.346;13.096;2022-07-23T04:49:47;12.33;;;6.00;;
2618;SDS011;1319;52.346;13.096;2022-07-23T04:52:12;7.73;;;5.10;;
2618;SDS011;1319;52.346;13.096;2022-07-23T04:54:37;18.03;;;5.33;;
2618;SDS011;1319;52.346;13.096;2022-07-23T04:57:02;11.30;;;5.50;;
2618;SDS011;1319;52.346;13.096;2022-07-23T04:59:27;12.23;;;5.60;;
2618;SDS011;1319;52.346;13.096;2022-07-23T05:01:53;9.23;;;5.60;;
2618;SDS011;1319;52.346;13.096;2022-07-23T05:04:18;8.63;;;5.17;;
2618;SDS011;1319;52.346;13.096;2022-07-23T05:06:43;9.73;;;5.77;;
2618;SDS011;1319;52.346;13.096;2022-07-23T05:09:08;11.20;;;6.20;;
2618;SDS011;1319;52.346;13.096;2022-07-23T05:11:33;8.80;;;5.90;;
2618;SDS011;1319;52.346;13.096;2022-07-23T05:13:59;9.77;;;5.70;;
2618;SDS011;1319;52.346;13.096;2022-07-23T05:16:24;9.17;;;5.60;;
2618;SDS011;1319;52.346;13.096;2022-07-23T05:18:49;14.93;;;6.20;;
2618;SDS011;1319;52.346;13.096;2022-07-23T05:21:14;9.90;;;5.80;;
2618;SDS011;1319;52.346;13.096;2022-07-23T05:23:39;8.63;;;5.83;;
2618;SDS011;1319;52.346;13.096;2022-07-23T05:26:05;10.87;;;6.10;;
2618;SDS011;1319;52.346;13.096;2022-07-23T05:28:30;7.13;;;5.67;;
2618;SDS011;1319;52.346;13.096;2022-07-23T05:30:55;11.93;;;6.33;;
2618;SDS011;1319;52.346;13.096;2022-07-23T05:33:20;12.77;;;6.17;;
2618;SDS011;1319;52.346;13.096;2022-07-23T05:35:45;13.87;;;6.23;;
2618;SDS011;1319;52.346;13.096;2022-07-23T05:38:11;9.83;;;6.07;;
2618;SDS011;1319;52.346;13.096;2022-07-23T05:40:36;8.77;;;6.00;;
2618;SDS011;1319;52.346;13.096;2022-07-23T05:43:01;11.13;;;6.30;;
2618;SDS011;1319;52.346;13.096;2022-07-23T05:45:26;9.13;;;6.33;;
2618;SDS011;1319;52.346;13.096;2022-07-23T05:47:52;10.33;;;6.43;;
2618;SDS011;1319;52.346;13.096;2022-07-23T05:50:17;12.27;;;6.57;;
2618;SDS011;1319;52.346;13.096;2022-07-23T05:52:42;9.03;;;6.77;;
2618;SDS011;1319;52.346;13.096;2022-07-23T05:55:08;10.10;;;6.03;;
2618;SDS011;1319;52.346;13.096;2022-07-23T05:57:34;15.27;;;5.90;;
2618;SDS011;1319;52.346;13.096;2022-07-23T05:59:59;10.60;;;6.13;;
2618;SDS011;1319;52.346;13.096;2022-07-23T06:02:24;8.00;;;5.33;;
2618;SDS011;1319;52.346;13.096;2022-07-23T06:04:49;10.90;;;5.47;;
2618;SDS011;1319;52.346;13.096;2022-07-23T06:07:15;12.87;;;6.27;;
2618;SDS011;1319;52.346;13.096;2022-07-23T06:09:40;9.93;;;5.80;;
2618;SDS011;1319;52.346;13.096;2022-07-23T06:12:05;8.83;;;5.70;;
2618;SDS011;1319;52.346;13.096;2022-07-23T06:14:31;8.10;;;5.30;;
2618;SDS011;1319;52.346;13.096;2022-07-23T06:16:56;12.97;;;5.33;;
2618;SDS011;1319;52.346;13.096;2022-07-23T06:19:21;8.60;;;5.57;;
2618;SDS011;1319;52.346;13.096;2022-07-23T06:21:46;8.30;;;5.57;;
2618;SDS011;1319;52.346;13.096;2022-07-23T06:24:12;9.83;;;5.23;;
2618;SDS011;1319;52.346;13.096;2022-07-23T06:26:37;6.23;;;5.10;;
2618;SDS011;1319;52.346;13.096;2022-07-23T06:29:02;11.87;;;5.83;;
2618;SDS011;1319;52.346;13.096;2022-07-23T06:31:27;9.87;;;5.40;;
2618;SDS011;1319;52.346;13.096;2022-07-23T06:33:53;11.20;;;5.90;;
2618;SDS011;1319;52.346;13.096;2022-07-23T06:36:18;10.73;;;5.70;;
2618;SDS011;1319;52.346;13.096;2022-07-23T06:38:43;9.13;;;4.97;;
2618;SDS011;1319;52.346;13.096;2022-07-23T06:41:08;12.03;;;6.13;;
2618;SDS011;1319;52.346;13.096;2022-07-23T06:43:33;9.17;;;5.83;;
2618;SDS011;1319;52.346;13.096;2022-07-23T06:45:59;11.33;;;5.87;;
2618;SDS011;1319;52.346;13.096;2022-07-23T06:48:24;9.20;;;5.73;;
2618;SDS011;1319;52.346;13.096;2022-07-23T06:50:49;13.17;;;5.97;;
2618;SDS011;1319;52.346;13.096;2022-07-23T06:53:17;9.57;;;5.80;;
2618;SDS011;1319;52.346;13.096;2022-07-23T06:55:42;8.43;;;6.20;;
2618;SDS011;1319;52.346;13.096;2022-07-23T06:58:07;9.37;;;6.13;;
2618;SDS011;1319;52.346;13.096;2022-07-23T07:00:34;8.33;;;5.90;;
2618;SDS011;1319;52.346;13.096;2022-07-23T07:02:59;12.93;;;5.87;;
2618;SDS011;1319;52.346;13.096;2022-07-23T07:05:25;5.87;;;5.27;;
2618;SDS011;1319;52.346;13.096;2022-07-23T07:07:52;11.87;;;6.10;;
2618;SDS011;1319;52.346;13.096;2022-07-23T07:10:18;12.70;;;5.93;;
2618;SDS011;1319;52.346;13.096;2022-07-23T07:12:43;13.00;;;6.27;;
2618;SDS011;1319;52.346;13.096;2022-07-23T07:15:08;12.27;;;5.73;;
2618;SDS011;1319;52.346;13.096;2022-07-23T07:17:33;9.20;;;5.47;;
2618;SDS011;1319;52.346;13.096;2022-07-23T07:19:59;6.70;;;5.50;;
2618;SDS011;1319;52.346;13.096;2022-07-23T07:22:24;9.00;;;5.63;;
2618;SDS011;1319;52.346;13.096;2022-07-23T07:24:49;13.37;;;5.70;;
2618;SDS011;1319;52.346;13.096;2022-07-23T07:27:14;9.93;;;5.80;;
2618;SDS011;1319;52.346;13.096;2022-07-23T07:29:40;11.43;;;5.93;;
2618;SDS011;1319;52.346;13.096;2022-07-23T07:32:05;12.53;;;5.87;;
2618;SDS011;1319;52.346;13.096;2022-07-23T07:34:30;10.63;;;5.80;;
2618;SDS011;1319;52.346;13.096;2022-07-23T07:36:55;8.57;;;5.10;;
2618;SDS011;1319;52.346;13.096;2022-07-23T07:39:20;9.93;;;5.73;;
2618;SDS011;1319;52.346;13.096;2022-07-23T07:41:46;9.97;;;5.27;;
2618;SDS011;1319;52.346;13.096;2022-07-23T07:44:11;6.50;;;5.53;;
2618;SDS011;1319;52.346;13.096;2022-07-23T07:46:36;5.70;;;4.90;;
2618;SDS011;1319;52.346;13.096;2022-07-23T07:49:01;8.80;;;5.50;;
2618;SDS011;1319;52.346;13.096;2022-07-23T07:51:27;7.20;;;5.63;;
2618;SDS011;1319;52.346;13.096;2022-07-23T07:53:52;9.97;;;5.27;;
2618;SDS011;1319;52.346;13.096;2022-07-23T07:56:17;8.93;;;5.77;;
2618;SDS011;1319;52.346;13.096;2022-07-23T07:58:42;11.83;;;5.60;;
2618;SDS011;1319;52.346;13.096;2022-07-23T08:01:08;13.67;;;5.37;;
2618;SDS011;1319;52.346;13.096;2022-07-23T08:03:33;9.67;;;5.60;;
2618;SDS011;1319;52.346;13.096;2022-07-23T08:05:58;7.43;;;5.00;;
2618;SDS011;1319;52.346;13.096;2022-07-23T08:08:23;7.23;;;5.20;;
2618;SDS011;1319;52.346;13.096;2022-07-23T08:10:49;9.33;;;5.93;;
2618;SDS011;1319;52.346;13.096;2022-07-23T08:13:15;9.73;;;5.43;;
2618;SDS011;1319;52.346;13.096;2022-07-23T08:15:41;8.30;;;5.30;;
2618;SDS011;1319;52.346;13.096;2022-07-23T08:18:06;7.67;;;5.00;;
2618;SDS011;1319;52.346;13.096;2022-07-23T08:20:31;10.37;;;4.87;;
2618;SDS011;1319;52.346;13.096;2022-07-23T08:22:58;7.83;;;4.87;;
2618;SDS011;1319;52.346;13.096;2022-07-23T08:25:37;12.50;;;5.00;;
2618;SDS011;1319;52.346;13.096;2022-07-23T08:28:03;6.37;;;4.80;;
2618;SDS011;1319;52.346;13.096;2022-07-23T08:30:30;9.53;;;4.80;;
2618;SDS011;1319;52.346;13.096;2022-07-23T08:32:59;7.67;;;4.33;;
2618;SDS011;1319;52.346;13.096;2022-07-23T08:35:31;6.87;;;4.90;;
2618;SDS011;1319;52.346;13.096;2022-07-23T08:37:58;5.73;;;4.30;;
2618;SDS011;1319;52.346;13.096;2022-07-23T08:40:25;6.20;;;4.87;;
2618;SDS011;1319;52.346;13.096;2022-07-23T08:42:50;4.77;;;4.37;;
2618;SDS011;1319;52.346;13.096;2022-07-23T08:45:17;10.73;;;4.90;;
2618;SDS011;1319;52.346;13.096;2022-07-23T08:47:42;7.57;;;4.23;;
2618;SDS011;1319;52.346;13.096;2022-07-23T08:50:08;6.17;;;4.37;;
2618;SDS011;1319;52.346;13.096;2022-07-23T08:52:34;6.35;;;3.90;;
2618;SDS011;1319;52.346;13.096;2022-07-23T08:55:00;8.18;;;4.45;;
2618;SDS011;1319;52.346;13.096;2022-07-23T08:57:26;7.65;;;4.50;;
2618;SDS011;1319;52.346;13.096;2022-07-23T08:59:51;5.45;;;4.13;;
2618;SDS011;1319;52.346;13.096;2022-07-23T09:02:16;6.35;;;4.32;;
2618;SDS011;1319;52.346;13.096;2022-07-23T09:04:42;5.72;;;4.32;;
2618;SDS011;1319;52.346;13.096;2022-07-23T09:07:07;7.63;;;4.30;;
2618;SDS011;1319;52.346;13.096;2022-07-23T09:09:33;7.53;;;4.10;;
2618;SDS011;1319;52.346;13.096;2022-07-23T09:12:05;7.00;;;4.30;;
2618;SDS011;1319;52.346;13.096;2022-07-23T09:14:41;6.43;;;4.33;;
2618;SDS011;1319;52.346;13.096;2022-07-23T09:17:13;7.40;;;4.07;;
2618;SDS011;1319;52.346;13.096;2022-07-23T09:19:39;8.38;;;4.20;;
2618;SDS011;1319;52.346;13.096;2022-07-23T09:22:26;11.07;;;4.28;;
2618;SDS011;1319;52.346;13.096;2022-07-23T09:25:05;9.20;;;4.43;;
2618;SDS011;1319;52.346;13.096;2022-07-23T09:27:47;9.27;;;4.43;;
2618;SDS011;1319;52.346;13.096;2022-07-23T09:30:12;6.35;;;3.75;;
2618;SDS011;1319;52.346;13.096;2022-07-23T09:32:41;9.18;;;4.68;;
2618;SDS011;1319;52.346;13.096;2022-07-23T09:35:06;6.63;;;4.43;;
2618;SDS011;1319;52.346;13.096;2022-07-23T09:37:32;9.38;;;4.47;;
2618;SDS011;1319;52.346;13.096;2022-07-23T09:40:07;10.77;;;4.55;;
2618;SDS011;1319;52.346;13.096;2022-07-23T09:42:33;7.75;;;4.10;;
2618;SDS011;1319;52.346;13.096;2022-07-23T09:44:59;5.28;;;4.28;;
2618;SDS011;1319;52.346;13.096;2022-07-23T09:47:27;8.57;;;3.97;;
2618;SDS011;1319;52.346;13.096;2022-07-23T09:50:05;4.50;;;3.72;;
2618;SDS011;1319;52.346;13.096;2022-07-23T09:52:34;7.18;;;4.57;;
2618;SDS011;1319;52.346;13.096;2022-07-23T09:55:01;6.47;;;4.53;;
2618;SDS011;1319;52.346;13.096;2022-07-23T09:57:27;10.68;;;4.38;;
2618;SDS011;1319;52.346;13.096;2022-07-23T09:59:53;8.13;;;4.03;;
2618;SDS011;1319;52.346;13.096;2022-07-23T10:02:19;9.43;;;3.92;;
2618;SDS011;1319;52.346;13.096;2022-07-23T10:04:45;7.55;;;4.97;;
2618;SDS011;1319;52.346;13.096;2022-07-23T10:07:11;8.43;;;4.65;;
2618;SDS011;1319;52.346;13.096;2022-07-23T10:09:37;9.25;;;4.80;;
2618;SDS011;1319;52.346;13.096;2022-07-23T10:12:04;8.27;;;4.68;;
2618;SDS011;1319;52.346;13.096;2022-07-23T10:14:49;7.05;;;4.63;;
2618;SDS011;1319;52.346;13.096;2022-07-23T10:17:16;9.35;;;4.85;;
2618;SDS011;1319;52.346;13.096;2022-07-23T10:19:41;5.28;;;4.45;;
2618;SDS011;1319;52.346;13.096;2022-07-23T10:22:09;8.18;;;4.82;;
2618;SDS011;1319;52.346;13.096;2022-07-23T10:24:43;10.98;;;4.72;;
2618;SDS011;1319;52.346;13.096;2022-07-23T10:30:01;10.80;;;4.38;;
2618;SDS011;1319;52.346;13.096;2022-07-23T10:37:27;7.05;;;4.55;;
2618;SDS011;1319;52.346;13.096;2022-07-23T10:42:39;13.88;;;4.35;;
2618;SDS011;1319;52.346;13.096;2022-07-23T10:45:27;5.13;;;3.90;;
2618;SDS011;1319;52.346;13.096;2022-07-23T10:47:51;4.60;;;4.13;;
2618;SDS011;1319;52.346;13.096;2022-07-23T10:52:42;5.75;;;4.68;;
2618;SDS011;1319;52.346;13.096;2022-07-23T10:57:52;6.35;;;4.28;;
2618;SDS011;1319;52.346;13.096;2022-07-23T11:00:27;9.68;;;4.30;;
2618;SDS011;1319;52.346;13.096;2022-07-23T11:02:54;11.80;;;4.30;;
2618;SDS011;1319;52.346;13.096;2022-07-23T11:05:20;8.85;;;4.20;;
2618;SDS011;1319;52.346;13.096;2022-07-23T11:10:33;9.15;;;3.97;;
2618;SDS011;1319;52.346;13.096;2022-07-23T11:14:00;9.98;;;4.32;;
2618;SDS011;1319;52.346;13.096;2022-07-23T11:31:54;6.10;;;4.70;;
2618;SDS011;1319;52.346;13.096;2022-07-23T11:36:57;5.55;;;4.38;;
2618;SDS011;1319;52.346;13.096;2022-07-23T11:39:25;8.95;;;4.35;;
2618;SDS011;1319;52.346;13.096;2022-07-23T11:41:51;11.23;;;4.68;;
2618;SDS011;1319;52.346;13.096;2022-07-23T11:44:29;7.22;;;4.60;;
2618;SDS011;1319;52.346;13.096;2022-07-23T11:47:04;6.97;;;4.30;;
2618;SDS011;1319;52.346;13.096;2022-07-23T11:49:29;5.65;;;4.25;;
2618;SDS011;1319;52.346;13.096;2022-07-23T11:52:11;7.90;;;4.50;;
2618;SDS011;1319;52.346;13.096;2022-07-23T11:54:47;6.93;;;4.38;;
2618;SDS011;1319;52.346;13.096;2022-07-23T11:57:12;8.15;;;4.63;;
2618;SDS011;1319;52.346;13.096;2022-07-23T11:59:37;5.82;;;4.15;;
2618;SDS011;1319;52.346;13.096;2022-07-23T12:02:04;9.18;;;4.50;;
2618;SDS011;1319;52.346;13.096;2022-07-23T12:04:46;4.50;;;4.10;;
2618;SDS011;1319;52.346;13.096;2022-07-23T12:07:28;5.38;;;3.97;;
2618;SDS011;1319;52.346;13.096;2022-07-23T12:09:54;9.88;;;4.13;;
2618;SDS011;1319;52.346;13.096;2022-07-23T12:12:20;11.10;;;4.38;;
2618;SDS011;1319;52.346;13.096;2022-07-23T12:17:13;5.75;;;4.05;;
2618;SDS011;1319;52.346;13.096;2022-07-23T12:19:39;7.63;;;4.20;;
2618;SDS011;1319;52.346;13.096;2022-07-23T12:22:04;5.05;;;4.15;;
2618;SDS011;1319;52.346;13.096;2022-07-23T12:24:29;7.00;;;4.03;;
2618;SDS011;1319;52.346;13.096;2022-07-23T12:27:07;7.95;;;4.35;;
2618;SDS011;1319;52.346;13.096;2022-07-23T12:29:36;6.45;;;4.20;;
2618;SDS011;1319;52.346;13.096;2022-07-23T12:32:01;5.00;;;4.15;;
2618;SDS011;1319;52.346;13.096;2022-07-23T12:34:27;5.32;;;4.38;;
2618;SDS011;1319;52.346;13.096;2022-07-23T12:36:52;4.97;;;4.00;;
2618;SDS011;1319;52.346;13.096;2022-07-23T12:39:33;9.80;;;4.25;;
2618;SDS011;1319;52.346;13.096;2022-07-23T12:41:58;8.40;;;4.10;;
2618;SDS011;1319;52.346;13.096;2022-07-23T12:44:23;5.40;;;4.10;;
2618;SDS011;1319;52.346;13.096;2022-07-23T12:46:51;5.28;;;3.20;;
2618;SDS011;1319;52.346;13.096;2022-07-23T12:49:27;4.57;;;4.18;;
2618;SDS011;1319;52.346;13.096;2022-07-23T12:51:52;7.20;;;3.90;;
2618;SDS011;1319;52.346;13.096;2022-07-23T12:54:17;9.48;;;3.78;;
2618;SDS011;1319;52.346;13.096;2022-07-23T12:56:45;11.35;;;4.03;;
2618;SDS011;1319;52.346;13.096;2022-07-23T12:59:12;5.80;;;3.90;;
2618;SDS011;1319;52.346;13.096;2022-07-23T13:01:54;5.78;;;4.10;;
2618;SDS011;1319;52.346;13.096;2022-07-23T13:04:20;5.78;;;3.97;;
2618;SDS011;1319;52.346;13.096;2022-07-23T13:06:47;4.03;;;3.65;;
2618;SDS011;1319;52.346;13.096;2022-07-23T13:09:14;6.13;;;3.85;;
2618;SDS011;1319;52.346;13.096;2022-07-23T13:11:40;5.20;;;3.78;;
2618;SDS011;1319;52.346;13.096;2022-07-23T13:14:05;5.93;;;3.67;;
2618;SDS011;1319;52.346;13.096;2022-07-23T13:16:31;6.65;;;4.00;;
2618;SDS011;1319;52.346;13.096;2022-07-23T13:18:57;7.70;;;3.65;;
2618;SDS011;1319;52.346;13.096;2022-07-23T13:21:22;6.55;;;3.60;;
2618;SDS011;1319;52.346;13.096;2022-07-23T13:23:48;3.83;;;3.42;;
2618;SDS011;1319;52.346;13.096;2022-07-23T13:26:13;7.05;;;3.50;;
2618;SDS011;1319;52.346;13.096;2022-07-23T13:28:39;6.30;;;3.40;;
2618;SDS011;1319;52.346;13.096;2022-07-23T13:31:04;5.53;;;3.22;;
2618;SDS011;1319;52.346;13.096;2022-07-23T13:33:29;7.70;;;3.20;;
2618;SDS011;1319;52.346;13.096;2022-07-23T13:35:54;6.28;;;3.72;;
2618;SDS011;1319;52.346;13.096;2022-07-23T13:38:21;3.70;;;3.38;;
2618;SDS011;1319;52.346;13.096;2022-07-23T13:40:47;4.30;;;3.30;;
2618;SDS011;1319;52.346;13.096;2022-07-23T13:43:14;4.75;;;3.00;;
2618;SDS011;1319;52.346;13.096;2022-07-23T13:45:40;11.00;;;3.33;;
2618;SDS011;1319;52.346;13.096;2022-07-23T13:48:07;3.95;;;2.70;;
2618;SDS011;1319;52.346;13.096;2022-07-23T13:50:33;6.97;;;3.15;;
2618;SDS011;1319;52.346;13.096;2022-07-23T13:53:06;2.90;;;2.80;;
2618;SDS011;1319;52.346;13.096;2022-07-23T13:55:31;5.80;;;2.97;;
2618;SDS011;1319;52.346;13.096;2022-07-23T13:57:57;9.88;;;3.30;;
2618;SDS011;1319;52.346;13.096;2022-07-23T14:00:23;9.10;;;3.28;;
2618;SDS011;1319;52.346;13.096;2022-07-23T14:02:48;3.05;;;2.60;;
2618;SDS011;1319;52.346;13.096;2022-07-23T14:05:13;4.72;;;3.08;;
2618;SDS011;1319;52.346;13.096;2022-07-23T14:07:39;6.13;;;3.13;;
2618;SDS011;1319;52.346;13.096;2022-07-23T14:10:05;5.72;;;3.22;;
2618;SDS011;1319;52.346;13.096;2022-07-23T14:12:31;4.15;;;2.90;;
2618;SDS011;1319;52.346;13.096;2022-07-23T14:14:56;5.75;;;2.85;;
2618;SDS011;1319;52.346;13.096;2022-07-23T14:17:22;5.85;;;3.00;;
2618;SDS011;1319;52.346;13.096;2022-07-23T14:19:47;4.95;;;3.10;;
2618;SDS011;1319;52.346;13.096;2022-07-23T14:22:12;5.00;;;2.80;;
2618;SDS011;1319;52.346;13.096;2022-07-23T14:24:38;4.85;;;2.92;;
2618;SDS011;1319;52.346;13.096;2022-07-23T14:27:04;4.97;;;2.85;;
2618;SDS011;1319;52.346;13.096;2022-07-23T14:29:29;3.75;;;2.78;;
2618;SDS011;1319;52.346;13.096;2022-07-23T14:31:55;14.77;;;3.08;;
2618;SDS011;1319;52.346;13.096;2022-07-23T14:34:20;5.60;;;2.67;;
2618;SDS011;1319;52.346;13.096;2022-07-23T14:36:45;3.75;;;2.40;;
2618;SDS011;1319;52.346;13.096;2022-07-23T14:39:10;3.47;;;2.50;;
2618;SDS011;1319;52.346;13.096;2022-07-23T14:41:37;7.82;;;2.50;;
2618;SDS011;1319;52.346;13.096;2022-07-23T14:44:02;2.60;;;2.40;;
2618;SDS011;1319;52.346;13.096;2022-07-23T14:46:27;2.83;;;2.47;;
2618;SDS011;1319;52.346;13.096;2022-07-23T14:48:53;4.03;;;2.70;;
2618;SDS011;1319;52.346;13.096;2022-07-23T14:51:18;4.72;;;2.58;;
2618;SDS011;1319;52.346;13.096;2022-07-23T14:53:43;4.22;;;2.67;;
2618;SDS011;1319;52.346;13.096;2022-07-23T14:56:08;2.50;;;2.30;;
2618;SDS011;1319;52.346;13.096;2022-07-23T14:58:34;3.60;;;2.45;;
2618;SDS011;1319;52.346;13.096;2022-07-23T15:01:00;4.15;;;2.30;;
2618;SDS011;1319;52.346;13.096;2022-07-23T15:03:25;3.03;;;2.50;;
2618;SDS011;1319;52.346;13.096;2022-07-23T15:05:50;4.70;;;2.50;;
2618;SDS011;1319;52.346;13.096;2022-07-23T15:08:16;5.05;;;2.50;;
2618;SDS011;1319;52.346;13.096;2022-07-23T15:10:42;4.07;;;2.53;;
2618;SDS011;1319;52.346;13.096;2022-07-23T15:13:07;2.55;;;2.30;;
2618;SDS011;1319;52.346;13.096;2022-07-23T15:15:32;3.47;;;2.42;;
2618;SDS011;1319;52.346;13.096;2022-07-23T15:17:58;4.13;;;2.50;;
2618;SDS011;1319;52.346;13.096;2022-07-23T15:20:23;4.10;;;2.20;;
2618;SDS011;1319;52.346;13.096;2022-07-23T15:22:48;3.60;;;2.33;;
2618;SDS011;1319;52.346;13.096;2022-07-23T15:25:13;6.25;;;2.30;;
2618;SDS011;1319;52.346;13.096;2022-07-23T15:27:39;4.97;;;2.60;;
2618;SDS011;1319;52.346;13.096;2022-07-23T15:30:04;2.30;;;2.10;;